sensor_id;sensor_type;location;lat;lon;timestamp;P1;durP1;ratioP1;P2;durP2;ratioP2
4984;SDS011;2509;49.902;8.600;2022-08-14T00:02:36;5.33;;;5.03;;
4984;SDS011;2509;49.902;8.600;2022-08-14T00:05:38;5.30;;;5.00;;
4984;SDS011;2509;49.902;8.600;2022-08-14T00:08:41;6.80;;;6.20;;
4984;SDS011;2509;49.902;8.600;2022-08-14T00:11:43;5.57;;;5.17;;
4984;SDS011;2509;49.902;8.600;2022-08-14T00:14:45;6.33;;;5.90;;
4984;SDS011;2509;49.902;8.600;2022-08-14T00:17:47;5.50;;;5.20;;
4984;SDS011;2509;49.902;8.600;2022-08-14T00:20:51;5.37;;;4.97;;
4984;SDS011;2509;49.902;8.600;2022-08-14T00:23:54;5.93;;;5.20;;
4984;SDS011;2509;49.902;8.600;2022-08-14T00:26:57;4.83;;;4.43;;
4984;SDS011;2509;49.902;8.600;2022-08-14T00:29:59;6.43;;;5.93;;
4984;SDS011;2509;49.902;8.600;2022-08-14T00:33:01;6.27;;;5.60;;
4984;SDS011;2509;49.902;8.600;2022-08-14T00:36:04;6.33;;;5.87;;
4984;SDS011;2509;49.902;8.600;2022-08-14T00:39:10;7.90;;;7.20;;
4984;SDS011;2509;49.902;8.600;2022-08-14T00:42:12;6.53;;;6.00;;
4984;SDS011;2509;49.902;8.600;2022-08-14T00:45:15;7.13;;;6.53;;
4984;SDS011;2509;49.902;8.600;2022-08-14T00:48:18;8.13;;;7.43;;
4984;SDS011;2509;49.902;8.600;2022-08-14T00:51:26;7.57;;;7.07;;
4984;SDS011;2509;49.902;8.600;2022-08-14T00:54:32;6.73;;;6.10;;
4984;SDS011;2509;49.902;8.600;2022-08-14T00:57:36;8.73;;;7.90;;
4984;SDS011;2509;49.902;8.600;2022-08-14T01:00:38;9.10;;;8.37;;
4984;SDS011;2509;49.902;8.600;2022-08-14T01:03:40;9.07;;;8.17;;
4984;SDS011;2509;49.902;8.600;2022-08-14T01:06:43;9.60;;;8.90;;
4984;SDS011;2509;49.902;8.600;2022-08-14T01:09:46;12.27;;;10.33;;
4984;SDS011;2509;49.902;8.600;2022-08-14T01:12:49;14.50;;;13.20;;
4984;SDS011;2509;49.902;8.600;2022-08-14T01:15:51;23.07;;;20.67;;
4984;SDS011;2509;49.902;8.600;2022-08-14T01:18:54;48.43;;;36.00;;
4984;SDS011;2509;49.902;8.600;2022-08-14T01:22:15;90.43;;;62.77;;
4984;SDS011;2509;49.902;8.600;2022-08-14T01:25:17;156.93;;;109.73;;
4984;SDS011;2509;49.902;8.600;2022-08-14T01:28:19;171.13;;;114.67;;
4984;SDS011;2509;49.902;8.600;2022-08-14T01:31:23;161.90;;;111.20;;
4984;SDS011;2509;49.902;8.600;2022-08-14T01:34:28;142.50;;;93.10;;
4984;SDS011;2509;49.902;8.600;2022-08-14T01:37:32;122.50;;;88.27;;
4984;SDS011;2509;49.902;8.600;2022-08-14T01:40:34;112.30;;;78.30;;
4984;SDS011;2509;49.902;8.600;2022-08-14T01:43:42;89.63;;;63.20;;
4984;SDS011;2509;49.902;8.600;2022-08-14T01:46:47;68.33;;;52.53;;
4984;SDS011;2509;49.902;8.600;2022-08-14T01:49:52;58.13;;;42.10;;
4984;SDS011;2509;49.902;8.600;2022-08-14T01:52:55;36.20;;;29.37;;
4984;SDS011;2509;49.902;8.600;2022-08-14T01:55:58;33.63;;;25.73;;
4984;SDS011;2509;49.902;8.600;2022-08-14T01:59:04;20.70;;;18.13;;
4984;SDS011;2509;49.902;8.600;2022-08-14T02:02:07;18.60;;;15.07;;
4984;SDS011;2509;49.902;8.600;2022-08-14T02:05:12;13.30;;;11.93;;
4984;SDS011;2509;49.902;8.600;2022-08-14T02:08:16;11.87;;;10.77;;
4984;SDS011;2509;49.902;8.600;2022-08-14T02:11:18;10.20;;;9.27;;
4984;SDS011;2509;49.902;8.600;2022-08-14T02:14:22;10.00;;;9.10;;
4984;SDS011;2509;49.902;8.600;2022-08-14T02:17:24;13.40;;;11.97;;
4984;SDS011;2509;49.902;8.600;2022-08-14T02:20:27;12.17;;;11.27;;
4984;SDS011;2509;49.902;8.600;2022-08-14T02:23:34;14.13;;;11.83;;
4984;SDS011;2509;49.902;8.600;2022-08-14T02:26:37;11.03;;;10.10;;
4984;SDS011;2509;49.902;8.600;2022-08-14T02:29:40;12.10;;;11.00;;
4984;SDS011;2509;49.902;8.600;2022-08-14T02:32:42;10.40;;;9.60;;
4984;SDS011;2509;49.902;8.600;2022-08-14T02:35:44;12.03;;;10.93;;
4984;SDS011;2509;49.902;8.600;2022-08-14T02:38:48;12.60;;;11.40;;
4984;SDS011;2509;49.902;8.600;2022-08-14T02:41:50;11.70;;;10.43;;
4984;SDS011;2509;49.902;8.600;2022-08-14T02:44:52;9.87;;;9.10;;
4984;SDS011;2509;49.902;8.600;2022-08-14T02:47:53;9.37;;;8.63;;
4984;SDS011;2509;49.902;8.600;2022-08-14T02:50:56;8.53;;;7.93;;
4984;SDS011;2509;49.902;8.600;2022-08-14T02:54:00;8.50;;;7.70;;
4984;SDS011;2509;49.902;8.600;2022-08-14T02:57:02;9.30;;;8.50;;
4984;SDS011;2509;49.902;8.600;2022-08-14T03:00:06;9.23;;;8.30;;
4984;SDS011;2509;49.902;8.600;2022-08-14T03:03:09;9.50;;;8.50;;
4984;SDS011;2509;49.902;8.600;2022-08-14T03:06:12;7.70;;;7.10;;
4984;SDS011;2509;49.902;8.600;2022-08-14T03:09:17;9.00;;;8.03;;
4984;SDS011;2509;49.902;8.600;2022-08-14T03:12:19;7.70;;;7.20;;
4984;SDS011;2509;49.902;8.600;2022-08-14T03:15:21;9.20;;;8.50;;
4984;SDS011;2509;49.902;8.600;2022-08-14T03:18:24;8.27;;;7.67;;
4984;SDS011;2509;49.902;8.600;2022-08-14T03:21:27;7.93;;;7.23;;
4984;SDS011;2509;49.902;8.600;2022-08-14T03:24:31;8.53;;;7.93;;
4984;SDS011;2509;49.902;8.600;2022-08-14T03:27:35;8.67;;;8.07;;
4984;SDS011;2509;49.902;8.600;2022-08-14T03:30:37;8.37;;;7.70;;
4984;SDS011;2509;49.902;8.600;2022-08-14T03:33:39;7.97;;;7.37;;
4984;SDS011;2509;49.902;8.600;2022-08-14T03:36:41;8.60;;;7.90;;
4984;SDS011;2509;49.902;8.600;2022-08-14T03:39:45;8.47;;;7.90;;
4984;SDS011;2509;49.902;8.600;2022-08-14T03:42:47;8.73;;;8.13;;
4984;SDS011;2509;49.902;8.600;2022-08-14T03:45:49;10.33;;;9.40;;
4984;SDS011;2509;49.902;8.600;2022-08-14T03:48:51;9.77;;;9.07;;
4984;SDS011;2509;49.902;8.600;2022-08-14T03:51:54;8.93;;;8.23;;
4984;SDS011;2509;49.902;8.600;2022-08-14T03:54:58;9.60;;;8.80;;
4984;SDS011;2509;49.902;8.600;2022-08-14T03:58:00;8.87;;;8.10;;
4984;SDS011;2509;49.902;8.600;2022-08-14T04:01:01;8.43;;;7.40;;
4984;SDS011;2509;49.902;8.600;2022-08-14T04:04:04;9.47;;;8.77;;
4984;SDS011;2509;49.902;8.600;2022-08-14T04:07:07;8.53;;;7.83;;
4984;SDS011;2509;49.902;8.600;2022-08-14T04:10:11;7.83;;;7.23;;
4984;SDS011;2509;49.902;8.600;2022-08-14T04:13:13;7.73;;;7.23;;
4984;SDS011;2509;49.902;8.600;2022-08-14T04:16:17;8.27;;;7.70;;
4984;SDS011;2509;49.902;8.600;2022-08-14T04:19:21;8.57;;;7.97;;
4984;SDS011;2509;49.902;8.600;2022-08-14T04:22:23;9.47;;;8.77;;
4984;SDS011;2509;49.902;8.600;2022-08-14T04:25:26;9.53;;;8.83;;
4984;SDS011;2509;49.902;8.600;2022-08-14T04:28:30;8.30;;;7.70;;
4984;SDS011;2509;49.902;8.600;2022-08-14T04:31:32;8.50;;;7.90;;
4984;SDS011;2509;49.902;8.600;2022-08-14T04:34:34;9.57;;;8.93;;
4984;SDS011;2509;49.902;8.600;2022-08-14T04:37:39;9.60;;;8.70;;
4984;SDS011;2509;49.902;8.600;2022-08-14T04:41:00;12.10;;;11.10;;
4984;SDS011;2509;49.902;8.600;2022-08-14T04:44:19;12.20;;;11.00;;
4984;SDS011;2509;49.902;8.600;2022-08-14T04:47:21;12.70;;;11.70;;
4984;SDS011;2509;49.902;8.600;2022-08-14T04:50:41;12.80;;;11.70;;
4984;SDS011;2509;49.902;8.600;2022-08-14T04:53:46;13.93;;;12.20;;
4984;SDS011;2509;49.902;8.600;2022-08-14T04:56:50;12.53;;;11.23;;
4984;SDS011;2509;49.902;8.600;2022-08-14T04:59:53;14.60;;;13.27;;
4984;SDS011;2509;49.902;8.600;2022-08-14T05:02:55;17.73;;;15.93;;
4984;SDS011;2509;49.902;8.600;2022-08-14T05:05:58;18.13;;;16.30;;
4984;SDS011;2509;49.902;8.600;2022-08-14T05:09:01;18.60;;;16.77;;
4984;SDS011;2509;49.902;8.600;2022-08-14T05:12:05;18.67;;;16.93;;
4984;SDS011;2509;49.902;8.600;2022-08-14T05:15:07;21.57;;;19.40;;
4984;SDS011;2509;49.902;8.600;2022-08-14T05:18:10;22.50;;;20.13;;
4984;SDS011;2509;49.902;8.600;2022-08-14T05:21:14;23.50;;;20.97;;
4984;SDS011;2509;49.902;8.600;2022-08-14T05:24:15;27.73;;;23.60;;
4984;SDS011;2509;49.902;8.600;2022-08-14T05:27:19;45.43;;;38.07;;
4984;SDS011;2509;49.902;8.600;2022-08-14T05:30:21;57.83;;;43.63;;
4984;SDS011;2509;49.902;8.600;2022-08-14T05:33:23;79.23;;;61.90;;
4984;SDS011;2509;49.902;8.600;2022-08-14T05:36:27;61.53;;;46.77;;
4984;SDS011;2509;49.902;8.600;2022-08-14T05:39:29;43.97;;;37.20;;
4984;SDS011;2509;49.902;8.600;2022-08-14T05:42:32;46.53;;;37.30;;
4984;SDS011;2509;49.902;8.600;2022-08-14T05:45:34;44.80;;;33.87;;
4984;SDS011;2509;49.902;8.600;2022-08-14T05:48:36;34.10;;;29.83;;
4984;SDS011;2509;49.902;8.600;2022-08-14T05:51:38;36.43;;;29.60;;
4984;SDS011;2509;49.902;8.600;2022-08-14T05:54:40;93.23;;;80.80;;
4984;SDS011;2509;49.902;8.600;2022-08-14T05:57:47;38.70;;;33.30;;
4984;SDS011;2509;49.902;8.600;2022-08-14T06:00:50;34.57;;;28.33;;
4984;SDS011;2509;49.902;8.600;2022-08-14T06:03:51;30.53;;;25.67;;
4984;SDS011;2509;49.902;8.600;2022-08-14T06:06:53;27.17;;;23.50;;
4984;SDS011;2509;49.902;8.600;2022-08-14T06:09:55;32.80;;;29.23;;
4984;SDS011;2509;49.902;8.600;2022-08-14T06:12:58;38.73;;;32.10;;
4984;SDS011;2509;49.902;8.600;2022-08-14T06:16:02;41.50;;;35.37;;
4984;SDS011;2509;49.902;8.600;2022-08-14T06:19:04;41.97;;;35.97;;
4984;SDS011;2509;49.902;8.600;2022-08-14T06:22:06;44.60;;;38.13;;
4984;SDS011;2509;49.902;8.600;2022-08-14T06:25:08;57.33;;;37.90;;
4984;SDS011;2509;49.902;8.600;2022-08-14T06:28:16;68.50;;;51.20;;
4984;SDS011;2509;49.902;8.600;2022-08-14T06:31:18;56.93;;;48.67;;
4984;SDS011;2509;49.902;8.600;2022-08-14T06:34:20;59.37;;;47.10;;
4984;SDS011;2509;49.902;8.600;2022-08-14T06:37:22;64.33;;;50.03;;
4984;SDS011;2509;49.902;8.600;2022-08-14T06:40:24;59.47;;;47.63;;
4984;SDS011;2509;49.902;8.600;2022-08-14T06:46:40;72.43;;;55.53;;
4984;SDS011;2509;49.902;8.600;2022-08-14T06:49:42;87.03;;;64.20;;
4984;SDS011;2509;49.902;8.600;2022-08-14T06:52:44;84.27;;;61.03;;
4984;SDS011;2509;49.902;8.600;2022-08-14T06:55:46;69.10;;;51.20;;
4984;SDS011;2509;49.902;8.600;2022-08-14T06:58:49;66.93;;;48.07;;
4984;SDS011;2509;49.902;8.600;2022-08-14T07:01:52;56.27;;;41.43;;
4984;SDS011;2509;49.902;8.600;2022-08-14T07:05:11;60.87;;;41.57;;
4984;SDS011;2509;49.902;8.600;2022-08-14T07:08:30;51.60;;;38.00;;
4984;SDS011;2509;49.902;8.600;2022-08-14T07:11:33;47.13;;;37.03;;
4984;SDS011;2509;49.902;8.600;2022-08-14T07:14:35;25.90;;;22.50;;
4984;SDS011;2509;49.902;8.600;2022-08-14T07:17:44;27.77;;;24.90;;
4984;SDS011;2509;49.902;8.600;2022-08-14T07:20:46;18.27;;;16.17;;
4984;SDS011;2509;49.902;8.600;2022-08-14T07:23:48;14.13;;;12.90;;
4984;SDS011;2509;49.902;8.600;2022-08-14T07:26:49;11.83;;;11.03;;
4984;SDS011;2509;49.902;8.600;2022-08-14T07:29:51;15.30;;;13.80;;
4984;SDS011;2509;49.902;8.600;2022-08-14T07:32:54;13.83;;;12.53;;
4984;SDS011;2509;49.902;8.600;2022-08-14T07:35:57;13.10;;;11.80;;
4984;SDS011;2509;49.902;8.600;2022-08-14T07:39:01;12.23;;;11.13;;
4984;SDS011;2509;49.902;8.600;2022-08-14T07:42:03;12.23;;;11.23;;
4984;SDS011;2509;49.902;8.600;2022-08-14T07:45:07;12.10;;;11.10;;
4984;SDS011;2509;49.902;8.600;2022-08-14T07:48:10;12.50;;;11.40;;
4984;SDS011;2509;49.902;8.600;2022-08-14T07:51:12;10.00;;;9.23;;
4984;SDS011;2509;49.902;8.600;2022-08-14T07:54:14;9.43;;;8.73;;
4984;SDS011;2509;49.902;8.600;2022-08-14T07:57:17;12.93;;;11.83;;
4984;SDS011;2509;49.902;8.600;2022-08-14T08:00:20;11.60;;;10.60;;
4984;SDS011;2509;49.902;8.600;2022-08-14T08:03:25;10.70;;;9.90;;
4984;SDS011;2509;49.902;8.600;2022-08-14T08:06:27;13.00;;;12.00;;
4984;SDS011;2509;49.902;8.600;2022-08-14T08:09:29;9.93;;;9.23;;
4984;SDS011;2509;49.902;8.600;2022-08-14T08:12:35;12.07;;;11.00;;
4984;SDS011;2509;49.902;8.600;2022-08-14T08:15:38;10.93;;;10.13;;
4984;SDS011;2509;49.902;8.600;2022-08-14T08:18:42;9.50;;;8.70;;
4984;SDS011;2509;49.902;8.600;2022-08-14T08:21:44;11.87;;;10.83;;
4984;SDS011;2509;49.902;8.600;2022-08-14T08:24:46;9.75;;;9.15;;
4984;SDS011;2509;49.902;8.600;2022-08-14T08:27:55;10.07;;;9.38;;
4984;SDS011;2509;49.902;8.600;2022-08-14T08:30:58;12.75;;;11.75;;
4984;SDS011;2509;49.902;8.600;2022-08-14T08:34:04;9.52;;;8.82;;
4984;SDS011;2509;49.902;8.600;2022-08-14T08:37:06;10.90;;;10.13;;
4984;SDS011;2509;49.902;8.600;2022-08-14T08:40:08;10.82;;;9.93;;
4984;SDS011;2509;49.902;8.600;2022-08-14T08:43:15;13.98;;;12.73;;
4984;SDS011;2509;49.902;8.600;2022-08-14T08:46:20;11.43;;;9.95;;
4984;SDS011;2509;49.902;8.600;2022-08-14T08:49:23;10.48;;;9.68;;
4984;SDS011;2509;49.902;8.600;2022-08-14T08:52:45;10.75;;;9.85;;
4984;SDS011;2509;49.902;8.600;2022-08-14T08:55:48;7.90;;;7.40;;
4984;SDS011;2509;49.902;8.600;2022-08-14T08:58:50;8.75;;;8.15;;
4984;SDS011;2509;49.902;8.600;2022-08-14T09:01:52;42.63;;;38.75;;
4984;SDS011;2509;49.902;8.600;2022-08-14T09:05:01;9.80;;;9.00;;
4984;SDS011;2509;49.902;8.600;2022-08-14T09:08:11;8.73;;;8.02;;
4984;SDS011;2509;49.902;8.600;2022-08-14T09:11:15;8.95;;;8.35;;
4984;SDS011;2509;49.902;8.600;2022-08-14T09:14:16;8.20;;;7.60;;
4984;SDS011;2509;49.902;8.600;2022-08-14T09:17:18;7.47;;;7.03;;
4984;SDS011;2509;49.902;8.600;2022-08-14T09:20:22;7.20;;;6.70;;
4984;SDS011;2509;49.902;8.600;2022-08-14T09:23:24;7.80;;;7.20;;
4984;SDS011;2509;49.902;8.600;2022-08-14T09:26:26;9.02;;;8.43;;
4984;SDS011;2509;49.902;8.600;2022-08-14T09:29:28;8.23;;;7.72;;
4984;SDS011;2509;49.902;8.600;2022-08-14T09:32:31;7.47;;;6.88;;
4984;SDS011;2509;49.902;8.600;2022-08-14T09:35:48;6.57;;;6.13;;
4984;SDS011;2509;49.902;8.600;2022-08-14T09:39:03;6.72;;;6.20;;
4984;SDS011;2509;49.902;8.600;2022-08-14T09:42:15;7.50;;;7.10;;
4984;SDS011;2509;49.902;8.600;2022-08-14T09:45:44;6.60;;;6.20;;
4984;SDS011;2509;49.902;8.600;2022-08-14T09:48:56;6.00;;;5.68;;
4984;SDS011;2509;49.902;8.600;2022-08-14T09:52:04;5.57;;;5.28;;
4984;SDS011;2509;49.902;8.600;2022-08-14T09:55:14;6.25;;;5.85;;
4984;SDS011;2509;49.902;8.600;2022-08-14T09:58:18;6.05;;;5.65;;
4984;SDS011;2509;49.902;8.600;2022-08-14T10:01:21;5.82;;;5.50;;
4984;SDS011;2509;49.902;8.600;2022-08-14T10:04:24;5.80;;;5.50;;
4984;SDS011;2509;49.902;8.600;2022-08-14T10:07:29;5.80;;;5.50;;
4984;SDS011;2509;49.902;8.600;2022-08-14T10:10:33;5.45;;;5.18;;
4984;SDS011;2509;49.902;8.600;2022-08-14T10:13:36;5.18;;;4.95;;
4984;SDS011;2509;49.902;8.600;2022-08-14T10:16:40;8.15;;;7.65;;
4984;SDS011;2509;49.902;8.600;2022-08-14T10:19:46;6.95;;;6.32;;
4984;SDS011;2509;49.902;8.600;2022-08-14T10:22:49;6.57;;;6.18;;
4984;SDS011;2509;49.902;8.600;2022-08-14T10:25:55;5.57;;;5.28;;
4984;SDS011;2509;49.902;8.600;2022-08-14T10:29:04;5.93;;;5.53;;
4984;SDS011;2509;49.902;8.600;2022-08-14T10:32:07;5.90;;;5.60;;
4984;SDS011;2509;49.902;8.600;2022-08-14T10:35:10;6.20;;;5.80;;
4984;SDS011;2509;49.902;8.600;2022-08-14T10:38:25;5.10;;;4.43;;
4984;SDS011;2509;49.902;8.600;2022-08-14T10:41:35;4.13;;;3.92;;
4984;SDS011;2509;49.902;8.600;2022-08-14T10:44:39;3.95;;;3.75;;
4984;SDS011;2509;49.902;8.600;2022-08-14T10:47:45;4.75;;;4.35;;
4984;SDS011;2509;49.902;8.600;2022-08-14T10:50:48;4.85;;;4.45;;
4984;SDS011;2509;49.902;8.600;2022-08-14T10:53:54;3.95;;;3.75;;
4984;SDS011;2509;49.902;8.600;2022-08-14T10:56:57;3.83;;;3.63;;
4984;SDS011;2509;49.902;8.600;2022-08-14T11:00:11;4.20;;;4.00;;
4984;SDS011;2509;49.902;8.600;2022-08-14T11:03:15;16.02;;;14.50;;
4984;SDS011;2509;49.902;8.600;2022-08-14T11:06:17;3.80;;;3.60;;
4984;SDS011;2509;49.902;8.600;2022-08-14T11:09:21;3.92;;;3.72;;
4984;SDS011;2509;49.902;8.600;2022-08-14T11:12:23;4.65;;;4.40;;
4984;SDS011;2509;49.902;8.600;2022-08-14T11:15:26;4.28;;;4.07;;
4984;SDS011;2509;49.902;8.600;2022-08-14T11:18:29;4.20;;;4.00;;
4984;SDS011;2509;49.902;8.600;2022-08-14T11:21:31;4.18;;;3.92;;
4984;SDS011;2509;49.902;8.600;2022-08-14T11:24:35;3.97;;;3.78;;
4984;SDS011;2509;49.902;8.600;2022-08-14T11:27:38;4.15;;;3.95;;
4984;SDS011;2509;49.902;8.600;2022-08-14T11:30:41;3.92;;;3.72;;
4984;SDS011;2509;49.902;8.600;2022-08-14T11:33:46;6.93;;;5.03;;
4984;SDS011;2509;49.902;8.600;2022-08-14T11:36:50;4.78;;;4.57;;
4984;SDS011;2509;49.902;8.600;2022-08-14T11:39:53;4.20;;;3.90;;
4984;SDS011;2509;49.902;8.600;2022-08-14T11:42:55;4.65;;;4.20;;
4984;SDS011;2509;49.902;8.600;2022-08-14T11:45:59;4.13;;;3.83;;
4984;SDS011;2509;49.902;8.600;2022-08-14T11:49:01;3.55;;;3.35;;
4984;SDS011;2509;49.902;8.600;2022-08-14T11:52:03;4.30;;;4.00;;
4984;SDS011;2509;49.902;8.600;2022-08-14T11:55:08;4.43;;;4.22;;
4984;SDS011;2509;49.902;8.600;2022-08-14T11:58:11;6.43;;;3.60;;
4984;SDS011;2509;49.902;8.600;2022-08-14T12:01:16;3.78;;;3.58;;
4984;SDS011;2509;49.902;8.600;2022-08-14T12:04:26;3.70;;;3.50;;
4984;SDS011;2509;49.902;8.600;2022-08-14T12:07:27;3.58;;;3.38;;
4984;SDS011;2509;49.902;8.600;2022-08-14T12:10:31;3.83;;;3.63;;
4984;SDS011;2509;49.902;8.600;2022-08-14T12:13:33;3.95;;;3.50;;
4984;SDS011;2509;49.902;8.600;2022-08-14T12:16:35;3.60;;;3.50;;
4984;SDS011;2509;49.902;8.600;2022-08-14T12:19:44;3.50;;;3.30;;
4984;SDS011;2509;49.902;8.600;2022-08-14T12:22:47;2.97;;;2.88;;
4984;SDS011;2509;49.902;8.600;2022-08-14T12:25:50;3.25;;;3.10;;
4984;SDS011;2509;49.902;8.600;2022-08-14T12:29:03;3.22;;;3.03;;
4984;SDS011;2509;49.902;8.600;2022-08-14T12:32:07;3.15;;;3.00;;
4984;SDS011;2509;49.902;8.600;2022-08-14T12:35:09;3.83;;;3.63;;
4984;SDS011;2509;49.902;8.600;2022-08-14T12:38:11;3.35;;;3.15;;
4984;SDS011;2509;49.902;8.600;2022-08-14T12:41:15;2.92;;;2.83;;
4984;SDS011;2509;49.902;8.600;2022-08-14T12:44:27;3.78;;;3.58;;
4984;SDS011;2509;49.902;8.600;2022-08-14T12:47:31;3.65;;;3.47;;
4984;SDS011;2509;49.902;8.600;2022-08-14T12:50:33;2.80;;;2.70;;
4984;SDS011;2509;49.902;8.600;2022-08-14T12:53:39;3.50;;;3.30;;
4984;SDS011;2509;49.902;8.600;2022-08-14T12:56:42;2.78;;;2.67;;
4984;SDS011;2509;49.902;8.600;2022-08-14T12:59:45;3.17;;;2.97;;
4984;SDS011;2509;49.902;8.600;2022-08-14T13:02:48;2.75;;;2.65;;
4984;SDS011;2509;49.902;8.600;2022-08-14T13:05:51;2.72;;;2.53;;
4984;SDS011;2509;49.902;8.600;2022-08-14T13:08:53;4.28;;;4.07;;
4984;SDS011;2509;49.902;8.600;2022-08-14T13:11:56;2.97;;;2.78;;
4984;SDS011;2509;49.902;8.600;2022-08-14T13:15:04;2.80;;;2.70;;
4984;SDS011;2509;49.902;8.600;2022-08-14T13:18:07;3.25;;;3.10;;
4984;SDS011;2509;49.902;8.600;2022-08-14T13:21:11;3.33;;;3.10;;
4984;SDS011;2509;49.902;8.600;2022-08-14T13:24:13;3.30;;;3.10;;
4984;SDS011;2509;49.902;8.600;2022-08-14T13:27:18;3.10;;;3.00;;
4984;SDS011;2509;49.902;8.600;2022-08-14T13:30:22;2.55;;;2.45;;
4984;SDS011;2509;49.902;8.600;2022-08-14T13:33:25;3.17;;;2.90;;
4984;SDS011;2509;49.902;8.600;2022-08-14T13:36:27;3.17;;;2.97;;
4984;SDS011;2509;49.902;8.600;2022-08-14T13:39:29;2.85;;;2.75;;
4984;SDS011;2509;49.902;8.600;2022-08-14T13:42:33;2.80;;;2.60;;
4984;SDS011;2509;49.902;8.600;2022-08-14T13:45:35;3.00;;;2.90;;
4984;SDS011;2509;49.902;8.600;2022-08-14T13:48:37;3.08;;;2.97;;
4984;SDS011;2509;49.902;8.600;2022-08-14T13:51:39;2.80;;;2.60;;
4984;SDS011;2509;49.902;8.600;2022-08-14T13:54:45;3.67;;;3.45;;
4984;SDS011;2509;49.902;8.600;2022-08-14T13:57:49;2.60;;;2.50;;
4984;SDS011;2509;49.902;8.600;2022-08-14T14:00:52;3.30;;;3.15;;
4984;SDS011;2509;49.902;8.600;2022-08-14T14:03:54;3.35;;;3.05;;
4984;SDS011;2509;49.902;8.600;2022-08-14T14:06:57;2.50;;;2.40;;
4984;SDS011;2509;49.902;8.600;2022-08-14T14:10:03;3.05;;;2.78;;
4984;SDS011;2509;49.902;8.600;2022-08-14T14:13:08;3.20;;;3.10;;
4984;SDS011;2509;49.902;8.600;2022-08-14T14:16:10;3.58;;;3.38;;
4984;SDS011;2509;49.902;8.600;2022-08-14T14:19:15;3.88;;;3.67;;
4984;SDS011;2509;49.902;8.600;2022-08-14T14:22:18;3.85;;;3.65;;
4984;SDS011;2509;49.902;8.600;2022-08-14T14:25:20;4.53;;;4.22;;
4984;SDS011;2509;49.902;8.600;2022-08-14T14:28:24;5.30;;;4.80;;
4984;SDS011;2509;49.902;8.600;2022-08-14T14:31:31;4.78;;;4.47;;
4984;SDS011;2509;49.902;8.600;2022-08-14T14:34:33;3.75;;;3.55;;
4984;SDS011;2509;49.902;8.600;2022-08-14T14:37:37;5.35;;;5.00;;
4984;SDS011;2509;49.902;8.600;2022-08-14T14:40:39;3.78;;;3.45;;
4984;SDS011;2509;49.902;8.600;2022-08-14T14:43:47;3.92;;;3.72;;
4984;SDS011;2509;49.902;8.600;2022-08-14T14:46:50;4.40;;;4.13;;
4984;SDS011;2509;49.902;8.600;2022-08-14T14:49:52;4.45;;;4.22;;
4984;SDS011;2509;49.902;8.600;2022-08-14T14:52:55;3.70;;;3.50;;
4984;SDS011;2509;49.902;8.600;2022-08-14T14:55:58;4.32;;;4.13;;
4984;SDS011;2509;49.902;8.600;2022-08-14T14:59:03;4.40;;;4.20;;
4984;SDS011;2509;49.902;8.600;2022-08-14T15:02:06;4.18;;;3.97;;
4984;SDS011;2509;49.902;8.600;2022-08-14T15:05:08;4.90;;;4.70;;
4984;SDS011;2509;49.902;8.600;2022-08-14T15:08:11;4.07;;;3.88;;
4984;SDS011;2509;49.902;8.600;2022-08-14T15:11:13;4.88;;;4.57;;
4984;SDS011;2509;49.902;8.600;2022-08-14T15:14:16;8.07;;;7.53;;
4984;SDS011;2509;49.902;8.600;2022-08-14T15:17:20;8.23;;;7.53;;
4984;SDS011;2509;49.902;8.600;2022-08-14T15:20:22;6.15;;;5.80;;
4984;SDS011;2509;49.902;8.600;2022-08-14T15:23:23;7.75;;;7.05;;
4984;SDS011;2509;49.902;8.600;2022-08-14T15:26:25;4.85;;;4.65;;
4984;SDS011;2509;49.902;8.600;2022-08-14T15:29:28;5.25;;;4.95;;
4984;SDS011;2509;49.902;8.600;2022-08-14T15:32:30;4.68;;;4.38;;
4984;SDS011;2509;49.902;8.600;2022-08-14T15:35:32;4.80;;;4.60;;
4984;SDS011;2509;49.902;8.600;2022-08-14T15:38:34;4.97;;;4.57;;
4984;SDS011;2509;49.902;8.600;2022-08-14T15:41:37;4.82;;;4.63;;
4984;SDS011;2509;49.902;8.600;2022-08-14T15:44:40;4.32;;;4.13;;
4984;SDS011;2509;49.902;8.600;2022-08-14T15:47:42;4.70;;;4.50;;
4984;SDS011;2509;49.902;8.600;2022-08-14T15:50:44;4.38;;;4.18;;
4984;SDS011;2509;49.902;8.600;2022-08-14T15:53:46;3.80;;;3.60;;
4984;SDS011;2509;49.902;8.600;2022-08-14T15:56:57;4.03;;;3.80;;
4984;SDS011;2509;49.902;8.600;2022-08-14T16:00:02;4.45;;;4.25;;
4984;SDS011;2509;49.902;8.600;2022-08-14T16:03:23;4.72;;;4.53;;
4984;SDS011;2509;49.902;8.600;2022-08-14T16:06:26;5.00;;;4.72;;
4984;SDS011;2509;49.902;8.600;2022-08-14T16:09:29;4.60;;;4.40;;
4984;SDS011;2509;49.902;8.600;2022-08-14T16:12:31;5.43;;;4.85;;
4984;SDS011;2509;49.902;8.600;2022-08-14T16:15:34;5.82;;;5.53;;
4984;SDS011;2509;49.902;8.600;2022-08-14T16:18:38;8.93;;;8.43;;
4984;SDS011;2509;49.902;8.600;2022-08-14T16:21:41;4.72;;;4.53;;
4984;SDS011;2509;49.902;8.600;2022-08-14T16:24:43;4.78;;;4.50;;
4984;SDS011;2509;49.902;8.600;2022-08-14T16:27:45;8.18;;;7.65;;
4984;SDS011;2509;49.902;8.600;2022-08-14T16:30:49;18.05;;;16.58;;
4984;SDS011;2509;49.902;8.600;2022-08-14T16:33:52;8.15;;;7.55;;
4984;SDS011;2509;49.902;8.600;2022-08-14T16:36:55;5.40;;;5.10;;
4984;SDS011;2509;49.902;8.600;2022-08-14T16:39:57;32.30;;;29.45;;
4984;SDS011;2509;49.902;8.600;2022-08-14T16:43:00;12.25;;;11.25;;
4984;SDS011;2509;49.902;8.600;2022-08-14T16:46:03;6.90;;;6.45;;
4984;SDS011;2509;49.902;8.600;2022-08-14T16:49:07;6.15;;;5.75;;
4984;SDS011;2509;49.902;8.600;2022-08-14T16:52:10;4.80;;;4.47;;
4984;SDS011;2509;49.902;8.600;2022-08-14T16:55:14;5.32;;;5.03;;
4984;SDS011;2509;49.902;8.600;2022-08-14T16:58:16;4.25;;;3.85;;
4984;SDS011;2509;49.902;8.600;2022-08-14T17:01:23;4.15;;;3.95;;
4984;SDS011;2509;49.902;8.600;2022-08-14T17:04:25;4.55;;;4.15;;
4984;SDS011;2509;49.902;8.600;2022-08-14T17:07:30;4.30;;;4.05;;
4984;SDS011;2509;49.902;8.600;2022-08-14T17:10:33;3.75;;;3.55;;
4984;SDS011;2509;49.902;8.600;2022-08-14T17:13:37;4.75;;;4.45;;
4984;SDS011;2509;49.902;8.600;2022-08-14T17:16:41;4.70;;;4.50;;
4984;SDS011;2509;49.902;8.600;2022-08-14T17:19:43;8.68;;;8.05;;
4984;SDS011;2509;49.902;8.600;2022-08-14T17:22:47;5.35;;;5.05;;
4984;SDS011;2509;49.902;8.600;2022-08-14T17:25:52;5.22;;;4.95;;
4984;SDS011;2509;49.902;8.600;2022-08-14T17:29:02;5.97;;;5.47;;
4984;SDS011;2509;49.902;8.600;2022-08-14T17:32:08;5.15;;;4.85;;
4984;SDS011;2509;49.902;8.600;2022-08-14T17:35:11;15.40;;;14.30;;
4984;SDS011;2509;49.902;8.600;2022-08-14T17:38:14;8.40;;;7.78;;
4984;SDS011;2509;49.902;8.600;2022-08-14T17:41:18;5.50;;;5.10;;
4984;SDS011;2509;49.902;8.600;2022-08-14T17:44:24;4.95;;;4.75;;
4984;SDS011;2509;49.902;8.600;2022-08-14T17:47:28;4.55;;;4.25;;
4984;SDS011;2509;49.902;8.600;2022-08-14T17:50:41;3.78;;;3.58;;
4984;SDS011;2509;49.902;8.600;2022-08-14T17:53:44;3.55;;;3.35;;
4984;SDS011;2509;49.902;8.600;2022-08-14T17:56:46;4.90;;;3.53;;
4984;SDS011;2509;49.902;8.600;2022-08-14T17:59:49;3.42;;;3.22;;
4984;SDS011;2509;49.902;8.600;2022-08-14T18:02:54;3.40;;;3.20;;
4984;SDS011;2509;49.902;8.600;2022-08-14T18:05:59;3.60;;;3.40;;
4984;SDS011;2509;49.902;8.600;2022-08-14T18:09:02;4.00;;;3.80;;
4984;SDS011;2509;49.902;8.600;2022-08-14T18:12:05;3.55;;;3.35;;
4984;SDS011;2509;49.902;8.600;2022-08-14T18:15:09;3.50;;;3.30;;
4984;SDS011;2509;49.902;8.600;2022-08-14T18:18:14;4.75;;;4.45;;
4984;SDS011;2509;49.902;8.600;2022-08-14T18:21:16;4.25;;;3.95;;
4984;SDS011;2509;49.902;8.600;2022-08-14T18:24:18;3.92;;;3.70;;
4984;SDS011;2509;49.902;8.600;2022-08-14T18:27:20;3.53;;;3.33;;
4984;SDS011;2509;49.902;8.600;2022-08-14T18:30:28;4.20;;;4.00;;
4984;SDS011;2509;49.902;8.600;2022-08-14T18:33:31;21.63;;;19.83;;
4984;SDS011;2509;49.902;8.600;2022-08-14T18:36:39;22.27;;;20.17;;
4984;SDS011;2509;49.902;8.600;2022-08-14T18:39:46;13.70;;;12.55;;
4984;SDS011;2509;49.902;8.600;2022-08-14T18:42:49;11.77;;;10.88;;
4984;SDS011;2509;49.902;8.600;2022-08-14T18:45:58;7.88;;;7.38;;
4984;SDS011;2509;49.902;8.600;2022-08-14T18:49:14;6.00;;;5.60;;
4984;SDS011;2509;49.902;8.600;2022-08-14T18:52:16;5.07;;;4.78;;
4984;SDS011;2509;49.902;8.600;2022-08-14T18:55:37;5.07;;;4.68;;
4984;SDS011;2509;49.902;8.600;2022-08-14T18:58:46;5.53;;;5.13;;